Time;durP1;ratioP1;P1;durP2;ratioP2;P2;SDS_P1;SDS_P2;PMS_P1;PMS_P2;Temp;Humidity;BMP_temperature;BMP_pressure;BME280_temperature;BME280_humidity;BME280_pressure;Samples;Min_cycle;Max_cycle;Signal;HPM_P1;HPM_P2
2023/09/03 00:00:07;;;;;;;;;;;;;;;;;;2070720;28;19918;-71
2023/09/03 00:01:28;;;;;;;;;;;;;;;;;;2070835;28;19917;-72
2023/09/03 00:02:49;;;;;;;;;;;;;;;;;;2063995;28;19925;-72
2023/09/03 00:04:09;;;;;;;;;;;;;;;;;;2060971;28;19940;-72
2023/09/03 00:05:30;;;;;;;;;;;;;;;;;;2064962;28;19930;-71
2023/09/03 00:06:51;;;;;;;;;;;;;;;;;;2070849;28;19917;-72
2023/09/03 00:08:11;;;;;;;;;;;;;;;;;;2064059;28;19910;-71
2023/09/03 00:09:33;;;;;;;;;;;;;;;;;;2074840;28;19914;-72
2023/09/03 00:10:54;;;;;;;;;;;;;;;;;;2063944;28;20408;-71
2023/09/03 00:12:15;;;;;;;;;;;;;;;;;;2062428;28;20354;-71
2023/09/03 00:13:36;;;;;;;;;;;;;;;;;;2068751;28;19952;-71
2023/09/03 00:14:57;;;;;;;;;;;;;;;;;;2071098;28;19913;-71
2023/09/03 00:16:17;;;;;;;;;;;;;;;;;;2066778;28;19968;-72
2023/09/03 00:17:38;;;;;;;;;;;;;;;;;;2061563;28;19913;-72
2023/09/03 00:18:59;;;;;;;;;;;;;;;;;;2064730;28;19914;-70
2023/09/03 00:20:19;;;;;;;;;;;;;;;;;;2064463;28;20315;-70
2023/09/03 00:21:40;;;;;;;;;;;;;;;;;;2062836;28;20007;-70
2023/09/03 00:23:01;;;;;;;;;;;;;;;;;;2062403;28;19914;-70
2023/09/03 00:24:22;;;;;;;;;;;;;;;;;;2061325;28;19914;-70
2023/09/03 00:25:42;;;;;;;;;;;;;;;;;;2060954;28;19926;-70
2023/09/03 00:27:03;;;;;;;;;;;;;;;;;;2070380;28;20047;-70
2023/09/03 00:28:24;;;;;;;;;;;;;;;;;;2066615;28;20317;-70
2023/09/03 00:29:44;;;;;;;;;;;;;;;;;;2063116;28;19921;-70
2023/09/03 00:31:05;;;;;;;;;;;;;;;;;;2061955;28;20399;-70
2023/09/03 00:32:26;;;;;;;;;;;;;;;;;;2060076;28;19960;-70
2023/09/03 00:33:47;;;;;;;;;;;;;;;;;;2063231;28;19923;-70
2023/09/03 00:35:07;;;;;;;;;;;;;;;;;;2061650;28;19964;-70
2023/09/03 00:36:28;;;;;;;;;;;;;;;;;;2061005;28;19933;-71
2023/09/03 00:37:49;;;;;;;;;;;;;;;;;;2059777;28;19914;-69
2023/09/03 00:39:09;;;;;;;;;;;;;;;;;;2059606;28;19929;-69
2023/09/03 00:40:31;;;;;;;;;;;;;;;;;;2055056;28;20340;-69
2023/09/03 00:41:52;;;;;;;;;;;;;;;;;;2061971;28;19913;-70
2023/09/03 00:43:13;;;;;;;;;;;;;;;;;;2060818;28;19921;-69
2023/09/03 00:44:33;;;;;;;;;;;;;;;;;;2054271;28;19986;-69
2023/09/03 00:45:54;;;;;;;;;;;;;;;;;;2056977;28;19918;-69
2023/09/03 00:47:15;;;;;;;;;;;;;;;;;;2061832;28;19917;-69
2023/09/03 00:48:35;;;;;;;;;;;;;;;;;;2062770;28;19960;-69
2023/09/03 00:49:56;;;;;;;;;;;;;;;;;;2054845;28;20489;-68
2023/09/03 00:51:17;;;;;;;;;;;;;;;;;;2058239;28;19918;-69
2023/09/03 00:52:38;;;;;;;;;;;;;;;;;;2056103;28;19925;-69
2023/09/03 00:53:58;;;;;;;;;;;;;;;;;;2052547;28;19953;-69
2023/09/03 00:55:19;;;;;;;;;;;;;;;;;;2059768;28;20012;-69
2023/09/03 00:56:40;;;;;;;;;;;;;;;;;;2053634;28;19926;-69
2023/09/03 00:58:00;;;;;;;;;;;;;;;;;;2060650;28;20452;-69
2023/09/03 00:59:21;;;;;;;;;;;;;;;;;;2056227;28;19933;-69
2023/09/03 01:00:42;;;;;;;;;;;;;;;;;;2056041;28;19914;-69
2023/09/03 01:02:02;;;;;;;;;;;;;;;;;;2061526;28;20285;-69
2023/09/03 01:03:25;;;;;;;;;;;;;;;;;;2063118;28;20128;-69
2023/09/03 01:04:46;;;;;;;;;;;;;;;;;;2062588;28;19922;-69
2023/09/03 01:06:06;;;;;;;;;;;;;;;;;;2054136;28;19922;-68
2023/09/03 01:07:27;;;;;;;;;;;;;;;;;;2050960;28;19968;-69
2023/09/03 01:08:48;;;;;;;;;;;;;;;;;;2059800;28;20412;-69
2023/09/03 01:10:08;;;;;;;;;;;;;;;;;;2063125;28;19994;-69
2023/09/03 01:11:30;;;;;;;;;;;;;;;;;;2052592;28;19957;-69
2023/09/03 01:12:51;;;;;;;;;;;;;;;;;;2050580;28;20239;-70
2023/09/03 01:14:12;;;;;;;;;;;;;;;;;;2057592;28;19914;-69
2023/09/03 01:15:32;;;;;;;;;;;;;;;;;;2060171;28;20373;-69
2023/09/03 01:16:53;;;;;;;;;;;;;;;;;;2058844;28;19924;-69
2023/09/03 01:18:14;;;;;;;;;;;;;;;;;;2061950;28;19914;-69
2023/09/03 01:19:34;;;;;;;;;;;;;;;;;;2061628;28;20325;-69
2023/09/03 01:20:55;;;;;;;;;;;;;;;;;;2053846;28;19914;-69
2023/09/03 01:22:16;;;;;;;;;;;;;;;;;;2058917;28;19925;-69
2023/09/03 01:23:37;;;;;;;;;;;;;;;;;;2064444;28;20377;-69
2023/09/03 01:24:57;;;;;;;;;;;;;;;;;;2061290;28;19914;-70
2023/09/03 01:26:18;;;;;;;;;;;;;;;;;;2060744;28;19937;-69
2023/09/03 01:27:39;;;;;;;;;;;;;;;;;;2061964;28;19914;-68
2023/09/03 01:28:59;;;;;;;;;;;;;;;;;;2058754;28;19913;-70
2023/09/03 01:30:20;;;;;;;;;;;;;;;;;;2061908;28;20388;-71
2023/09/03 01:31:41;;;;;;;;;;;;;;;;;;2061973;28;19921;-70
2023/09/03 01:33:01;;;;;;;;;;;;;;;;;;2062536;28;19921;-71
2023/09/03 01:34:22;;;;;;;;;;;;;;;;;;2061810;28;19961;-70
2023/09/03 01:35:43;;;;;;;;;;;;;;;;;;2062157;28;19914;-73
2023/09/03 01:37:04;;;;;;;;;;;;;;;;;;2070234;28;19922;-70
2023/09/03 01:38:25;;;;;;;;;;;;;;;;;;2068665;28;19921;-70
2023/09/03 01:39:45;;;;;;;;;;;;;;;;;;2061342;28;19914;-70
2023/09/03 01:41:06;;;;;;;;;;;;;;;;;;2067269;28;20336;-70
2023/09/03 01:42:27;;;;;;;;;;;;;;;;;;2070111;28;19913;-71
2023/09/03 01:43:47;;;;;;;;;;;;;;;;;;2071141;28;20007;-71
2023/09/03 01:45:08;;;;;;;;;;;;;;;;;;2069548;28;19917;-70
2023/09/03 01:46:29;;;;;;;;;;;;;;;;;;2059880;28;19922;-70
2023/09/03 01:47:49;;;;;;;;;;;;;;;;;;2061427;28;20374;-70
2023/09/03 01:49:10;;;;;;;;;;;;;;;;;;2062010;28;19918;-70
2023/09/03 01:50:31;;;;;;;;;;;;;;;;;;2061291;28;19922;-70
2023/09/03 01:51:51;;;;;;;;;;;;;;;;;;2066906;28;19921;-70
2023/09/03 01:53:12;;;;;;;;;;;;;;;;;;2070714;28;19922;-70
2023/09/03 01:54:33;;;;;;;;;;;;;;;;;;2068793;28;20455;-70
2023/09/03 01:55:54;;;;;;;;;;;;;;;;;;2070163;28;19921;-70
2023/09/03 01:57:15;;;;;;;;;;;;;;;;;;2072481;28;19914;-71
2023/09/03 01:58:36;;;;;;;;;;;;;;;;;;2073114;28;19920;-70
2023/09/03 01:59:57;;;;;;;;;;;;;;;;;;2071369;28;19913;-71
2023/09/03 02:01:17;;;;;;;;;;;;;;;;;;2061751;28;20401;-70
2023/09/03 02:02:38;;;;;;;;;;;;;;;;;;2069170;28;19970;-71
2023/09/03 02:03:59;;;;;;;;;;;;;;;;;;2069978;28;20400;-70
2023/09/03 02:05:19;;;;;;;;;;;;;;;;;;2067884;28;19913;-71
2023/09/03 02:06:40;;;;;;;;;;;;;;;;;;2051860;28;20026;-70
2023/09/03 02:08:01;;;;;;;;;;;;;;;;;;2058892;28;20325;-70
2023/09/03 02:09:22;;;;;;;;;;;;;;;;;;2054989;28;19922;-70
2023/09/03 02:10:42;;;;;;;;;;;;;;;;;;2058166;28;20409;-70
2023/09/03 02:12:03;;;;;;;;;;;;;;;;;;2062237;28;19914;-71
2023/09/03 02:13:24;;;;;;;;;;;;;;;;;;2062845;28;20282;-70
2023/09/03 02:14:45;;;;;;;;;;;;;;;;;;2061512;28;19918;-70
2023/09/03 02:16:05;;;;;;;;;;;;;;;;;;2062470;28;19921;-70
2023/09/03 02:17:26;;;;;;;;;;;;;;;;;;2065871;28;19920;-70
2023/09/03 02:18:47;;;;;;;;;;;;;;;;;;2067538;28;20378;-70
2023/09/03 02:20:07;;;;;;;;;;;;;;;;;;2058522;28;19947;-70
2023/09/03 02:21:28;;;;;;;;;;;;;;;;;;2065166;28;19913;-70
2023/09/03 02:22:49;;;;;;;;;;;;;;;;;;2068645;28;19925;-71
2023/09/03 02:24:09;;;;;;;;;;;;;;;;;;2068039;28;19922;-70
2023/09/03 02:25:30;;;;;;;;;;;;;;;;;;2066601;28;19921;-70
2023/09/03 02:26:51;;;;;;;;;;;;;;;;;;2063162;28;20309;-71
2023/09/03 02:28:12;;;;;;;;;;;;;;;;;;2067097;28;19913;-71
2023/09/03 02:29:32;;;;;;;;;;;;;;;;;;2070209;28;19914;-70
2023/09/03 02:30:53;;;;;;;;;;;;;;;;;;2067198;28;20341;-71
2023/09/03 02:32:14;;;;;;;;;;;;;;;;;;2071138;28;19914;-71
2023/09/03 02:33:34;;;;;;;;;;;;;;;;;;2061595;28;19914;-71
2023/09/03 02:34:55;;;;;;;;;;;;;;;;;;2068212;28;20028;-71
2023/09/03 02:36:16;;;;;;;;;;;;;;;;;;2058862;28;19934;-71
2023/09/03 02:37:37;;;;;;;;;;;;;;;;;;2067893;28;20313;-71
2023/09/03 02:38:57;;;;;;;;;;;;;;;;;;2069336;28;19914;-71
2023/09/03 02:40:19;;;;;;;;;;;;;;;;;;2070512;28;19918;-70
2023/09/03 02:41:39;;;;;;;;;;;;;;;;;;2068576;28;19918;-70
2023/09/03 02:43:00;;;;;;;;;;;;;;;;;;2061472;28;19933;-70
2023/09/03 02:44:21;;;;;;;;;;;;;;;;;;2066545;28;19976;-69
2023/09/03 02:45:41;;;;;;;;;;;;;;;;;;2067668;28;20369;-69
2023/09/03 02:47:02;;;;;;;;;;;;;;;;;;2071116;28;19921;-69
2023/09/03 02:48:23;;;;;;;;;;;;;;;;;;2070677;28;19917;-71
2023/09/03 02:49:43;;;;;;;;;;;;;;;;;;2071243;28;20332;-69
2023/09/03 02:51:04;;;;;;;;;;;;;;;;;;2071322;28;19929;-70
2023/09/03 02:52:25;;;;;;;;;;;;;;;;;;2071858;28;19922;-70
2023/09/03 02:53:47;;;;;;;;;;;;;;;;;;2064188;28;19925;-69
2023/09/03 02:55:08;;;;;;;;;;;;;;;;;;2059777;28;19926;-70
2023/09/03 02:56:28;;;;;;;;;;;;;;;;;;2066328;28;19917;-69
2023/09/03 02:57:49;;;;;;;;;;;;;;;;;;2062412;28;20004;-69
2023/09/03 02:59:10;;;;;;;;;;;;;;;;;;2068511;28;19975;-69
2023/09/03 03:00:31;;;;;;;;;;;;;;;;;;2070479;28;19921;-70
2023/09/03 03:01:51;;;;;;;;;;;;;;;;;;2071651;28;19913;-69
2023/09/03 03:03:12;;;;;;;;;;;;;;;;;;2061060;28;19913;-70
2023/09/03 03:04:33;;;;;;;;;;;;;;;;;;2068820;28;20409;-71
2023/09/03 03:05:53;;;;;;;;;;;;;;;;;;2071482;28;19960;-70
2023/09/03 03:07:14;;;;;;;;;;;;;;;;;;2054110;28;20004;-69
2023/09/03 03:08:35;;;;;;;;;;;;;;;;;;2056238;28;19929;-69
2023/09/03 03:09:55;;;;;;;;;;;;;;;;;;2053334;28;21043;-69
2023/09/03 03:11:16;;;;;;;;;;;;;;;;;;2061008;28;20404;-69
2023/09/03 03:12:37;;;;;;;;;;;;;;;;;;2053898;28;20085;-70
2023/09/03 03:13:57;;;;;;;;;;;;;;;;;;2062555;28;19913;-70
2023/09/03 03:15:18;;;;;;;;;;;;;;;;;;2063505;28;19914;-70
2023/09/03 03:16:39;;;;;;;;;;;;;;;;;;2064588;28;20428;-69
2023/09/03 03:17:59;;;;;;;;;;;;;;;;;;2071153;28;19914;-69
2023/09/03 03:19:20;;;;;;;;;;;;;;;;;;2070320;28;19922;-69
2023/09/03 03:20:41;;;;;;;;;;;;;;;;;;2069422;28;20507;-69
2023/09/03 03:22:01;;;;;;;;;;;;;;;;;;2071966;28;20000;-69
2023/09/03 03:23:22;;;;;;;;;;;;;;;;;;2070367;28;19913;-69
2023/09/03 03:24:43;;;;;;;;;;;;;;;;;;2059962;28;19922;-70
2023/09/03 03:26:04;;;;;;;;;;;;;;;;;;2068395;28;19992;-69
2023/09/03 03:27:24;;;;;;;;;;;;;;;;;;2056528;28;19922;-69
2023/09/03 03:28:45;;;;;;;;;;;;;;;;;;2070321;28;19913;-69
2023/09/03 03:30:06;;;;;;;;;;;;;;;;;;2072473;28;20471;-69
2023/09/03 03:31:26;;;;;;;;;;;;;;;;;;2073415;28;19921;-70
2023/09/03 03:32:47;;;;;;;;;;;;;;;;;;2082024;28;20334;-69
2023/09/03 03:34:08;;;;;;;;;;;;;;;;;;2073142;28;19960;-69
2023/09/03 03:35:28;;;;;;;;;;;;;;;;;;2070484;28;19910;-70
2023/09/03 03:36:49;;;;;;;;;;;;;;;;;;2076062;28;19921;-69
2023/09/03 03:38:10;;;;;;;;;;;;;;;;;;2067746;28;19937;-70
2023/09/03 03:39:30;;;;;;;;;;;;;;;;;;2070699;28;19980;-70
2023/09/03 03:40:51;;;;;;;;;;;;;;;;;;2070317;28;20211;-70
2023/09/03 03:42:12;;;;;;;;;;;;;;;;;;2071300;28;19918;-70
2023/09/03 03:43:33;;;;;;;;;;;;;;;;;;2072244;28;19921;-69
2023/09/03 03:44:53;;;;;;;;;;;;;;;;;;2070427;28;20269;-70
2023/09/03 03:46:14;;;;;;;;;;;;;;;;;;2068898;28;19920;-69
2023/09/03 03:47:35;;;;;;;;;;;;;;;;;;2061297;28;19969;-70
2023/09/03 03:48:55;;;;;;;;;;;;;;;;;;2069957;28;19971;-69
2023/09/03 03:50:16;;;;;;;;;;;;;;;;;;2063711;28;20397;-70
2023/09/03 03:51:37;;;;;;;;;;;;;;;;;;2067753;28;19921;-70
2023/09/03 03:52:57;;;;;;;;;;;;;;;;;;2075908;28;19913;-70
2023/09/03 03:54:18;;;;;;;;;;;;;;;;;;2069891;28;20425;-71
2023/09/03 03:55:39;;;;;;;;;;;;;;;;;;2057149;28;19914;-70
2023/09/03 03:56:59;;;;;;;;;;;;;;;;;;2060735;28;19918;-71
2023/09/03 03:58:20;;;;;;;;;;;;;;;;;;2069097;28;20015;-70
2023/09/03 03:59:41;;;;;;;;;;;;;;;;;;2063889;28;19977;-71
2023/09/03 04:01:02;;;;;;;;;;;;;;;;;;2058775;28;20293;-70
2023/09/03 04:02:22;;;;;;;;;;;;;;;;;;2070384;28;19921;-71
2023/09/03 04:03:43;;;;;;;;;;;;;;;;;;2065797;28;19980;-71
2023/09/03 04:05:04;;;;;;;;;;;;;;;;;;2064158;28;19920;-71
2023/09/03 04:06:27;;;;;;;;;;;;;;;;;;2069374;28;19917;-70
2023/09/03 04:07:48;;;;;;;;;;;;;;;;;;2071357;28;19968;-70
2023/09/03 04:09:08;;;;;;;;;;;;;;;;;;2063800;28;19910;-71
2023/09/03 04:10:29;;;;;;;;;;;;;;;;;;2070499;28;19913;-71
2023/09/03 04:11:50;;;;;;;;;;;;;;;;;;2071230;28;20332;-70
2023/09/03 04:13:11;;;;;;;;;;;;;;;;;;2066162;28;19929;-71
2023/09/03 04:14:31;;;;;;;;;;;;;;;;;;2062466;28;19917;-70
2023/09/03 04:15:52;;;;;;;;;;;;;;;;;;2069601;28;19913;-70
2023/09/03 04:17:13;;;;;;;;;;;;;;;;;;2068578;28;20003;-70
2023/09/03 04:18:34;;;;;;;;;;;;;;;;;;2070933;28;19913;-70
2023/09/03 04:19:55;;;;;;;;;;;;;;;;;;2070616;28;19914;-70
2023/09/03 04:21:16;;;;;;;;;;;;;;;;;;2074830;28;19914;-71
2023/09/03 04:22:36;;;;;;;;;;;;;;;;;;2071528;28;20293;-71
2023/09/03 04:23:57;;;;;;;;;;;;;;;;;;2071756;28;20276;-71
2023/09/03 04:25:18;;;;;;;;;;;;;;;;;;2072770;28;19921;-72
2023/09/03 04:26:38;;;;;;;;;;;;;;;;;;2072140;28;19914;-71
2023/09/03 04:27:59;;;;;;;;;;;;;;;;;;2071831;28;20474;-71
2023/09/03 04:29:20;;;;;;;;;;;;;;;;;;2071026;28;19921;-71
2023/09/03 04:30:40;;;;;;;;;;;;;;;;;;2069756;28;20250;-70
2023/09/03 04:32:01;;;;;;;;;;;;;;;;;;2056902;28;19922;-69
2023/09/03 04:33:22;;;;;;;;;;;;;;;;;;2068177;28;19948;-71
2023/09/03 04:34:43;;;;;;;;;;;;;;;;;;2064243;28;19964;-70
2023/09/03 04:36:03;;;;;;;;;;;;;;;;;;2075875;28;19921;-70
2023/09/03 04:37:24;;;;;;;;;;;;;;;;;;2070005;28;20285;-70
2023/09/03 04:38:45;;;;;;;;;;;;;;;;;;2058255;28;19918;-70
2023/09/03 04:40:06;;;;;;;;;;;;;;;;;;2067179;28;19913;-70
2023/09/03 04:41:26;;;;;;;;;;;;;;;;;;2061306;28;19921;-70
2023/09/03 04:42:47;;;;;;;;;;;;;;;;;;2069006;28;20372;-70
2023/09/03 04:44:08;;;;;;;;;;;;;;;;;;2062789;28;19918;-71
2023/09/03 04:45:28;;;;;;;;;;;;;;;;;;2069088;28;20316;-71
2023/09/03 04:46:49;;;;;;;;;;;;;;;;;;2071863;28;19913;-71
2023/09/03 04:48:10;;;;;;;;;;;;;;;;;;2063839;28;19988;-71
2023/09/03 04:49:30;;;;;;;;;;;;;;;;;;2067625;28;19917;-71
2023/09/03 04:50:51;;;;;;;;;;;;;;;;;;2061599;28;19918;-73
2023/09/03 04:52:12;;;;;;;;;;;;;;;;;;2070805;28;19917;-71
2023/09/03 04:53:32;;;;;;;;;;;;;;;;;;2062817;28;20211;-71
2023/09/03 04:54:53;;;;;;;;;;;;;;;;;;2062960;28;19913;-71
2023/09/03 04:56:14;;;;;;;;;;;;;;;;;;2062011;28;19922;-71
2023/09/03 04:57:35;;;;;;;;;;;;;;;;;;2058967;28;19922;-71
2023/09/03 04:58:55;;;;;;;;;;;;;;;;;;2068440;28;20360;-71
2023/09/03 05:00:16;;;;;;;;;;;;;;;;;;2068925;28;19917;-70
2023/09/03 05:01:37;;;;;;;;;;;;;;;;;;2064473;28;19914;-70
2023/09/03 05:02:57;;;;;;;;;;;;;;;;;;2070935;28;19909;-70
2023/09/03 05:04:18;;;;;;;;;;;;;;;;;;2072073;28;19924;-71
2023/09/03 05:05:39;;;;;;;;;;;;;;;;;;2058074;28;19921;-70
2023/09/03 05:07:00;;;;;;;;;;;;;;;;;;2070794;28;19932;-70
2023/09/03 05:08:20;;;;;;;;;;;;;;;;;;2069796;28;19925;-70
2023/09/03 05:09:41;;;;;;;;;;;;;;;;;;2071703;28;19920;-70
2023/09/03 05:11:02;;;;;;;;;;;;;;;;;;2067719;28;20384;-71
2023/09/03 05:12:22;;;;;;;;;;;;;;;;;;2069281;28;19922;-71
2023/09/03 05:13:43;;;;;;;;;;;;;;;;;;2069941;28;19921;-70
2023/09/03 05:15:04;;;;;;;;;;;;;;;;;;2072568;28;19910;-70
2023/09/03 05:16:26;;;;;;;;;;;;;;;;;;2071182;28;19917;-70
2023/09/03 05:17:47;;;;;;;;;;;;;;;;;;2071455;28;19914;-70
2023/09/03 05:19:08;;;;;;;;;;;;;;;;;;2066497;28;19910;-71
2023/09/03 05:20:29;;;;;;;;;;;;;;;;;;2068576;28;20208;-70
2023/09/03 05:21:49;;;;;;;;;;;;;;;;;;2072673;28;19913;-71
2023/09/03 05:23:10;;;;;;;;;;;;;;;;;;2070713;28;19968;-70
2023/09/03 05:24:31;;;;;;;;;;;;;;;;;;2065735;28;19922;-70
2023/09/03 05:25:51;;;;;;;;;;;;;;;;;;2073755;28;19967;-70
2023/09/03 05:27:12;;;;;;;;;;;;;;;;;;2064399;28;19914;-70
2023/09/03 05:28:33;;;;;;;;;;;;;;;;;;2064391;28;20395;-70
2023/09/03 05:29:53;;;;;;;;;;;;;;;;;;2068307;28;19913;-71
2023/09/03 05:31:14;;;;;;;;;;;;;;;;;;2072929;28;19928;-70
2023/09/03 05:32:35;;;;;;;;;;;;;;;;;;2072554;28;19914;-70
2023/09/03 05:33:56;;;;;;;;;;;;;;;;;;2062274;28;19922;-70
2023/09/03 05:35:16;;;;;;;;;;;;;;;;;;2063991;28;19918;-70
2023/09/03 05:36:37;;;;;;;;;;;;;;;;;;2070275;28;19922;-70
2023/09/03 05:37:58;;;;;;;;;;;;;;;;;;2066382;28;19918;-70
2023/09/03 05:39:19;;;;;;;;;;;;;;;;;;2072153;28;19910;-70
2023/09/03 05:40:40;;;;;;;;;;;;;;;;;;2068456;28;19921;-71
2023/09/03 05:42:00;;;;;;;;;;;;;;;;;;2072099;28;20523;-70
2023/09/03 05:43:21;;;;;;;;;;;;;;;;;;2071611;28;19921;-70
2023/09/03 05:44:42;;;;;;;;;;;;;;;;;;2068162;28;20316;-70
2023/09/03 05:46:02;;;;;;;;;;;;;;;;;;2069272;28;20043;-70
2023/09/03 05:47:23;;;;;;;;;;;;;;;;;;2063188;28;19914;-70
2023/09/03 05:48:44;;;;;;;;;;;;;;;;;;2068680;28;19913;-70
2023/09/03 05:50:05;;;;;;;;;;;;;;;;;;2069756;28;19924;-70
2023/09/03 05:51:26;;;;;;;;;;;;;;;;;;2062998;28;19921;-70
2023/09/03 05:52:47;;;;;;;;;;;;;;;;;;2067484;28;20000;-70
2023/09/03 05:54:08;;;;;;;;;;;;;;;;;;2070566;28;19913;-69
2023/09/03 05:55:28;;;;;;;;;;;;;;;;;;2070459;28;19913;-70
2023/09/03 05:56:49;;;;;;;;;;;;;;;;;;2063222;28;19914;-69
2023/09/03 05:58:10;;;;;;;;;;;;;;;;;;2066262;28;23765;-70
2023/09/03 05:59:31;;;;;;;;;;;;;;;;;;2070728;28;19971;-70
2023/09/03 06:00:51;;;;;;;;;;;;;;;;;;2062857;28;19925;-69
2023/09/03 06:02:12;;;;;;;;;;;;;;;;;;2067678;28;19954;-70
2023/09/03 06:03:33;;;;;;;;;;;;;;;;;;2070952;28;19914;-69
2023/09/03 06:04:53;;;;;;;;;;;;;;;;;;2067702;28;19913;-70
2023/09/03 06:06:14;;;;;;;;;;;;;;;;;;2069032;28;19913;-70
2023/09/03 06:07:35;;;;;;;;;;;;;;;;;;2068855;28;19926;-69
2023/09/03 06:08:55;;;;;;;;;;;;;;;;;;2067904;28;20012;-70
2023/09/03 06:10:16;;;;;;;;;;;;;;;;;;2070116;28;19968;-70
2023/09/03 06:11:37;;;;;;;;;;;;;;;;;;2070868;28;20042;-69
2023/09/03 06:12:58;;;;;;;;;;;;;;;;;;2071011;28;20254;-70
2023/09/03 06:14:18;;;;;;;;;;;;;;;;;;2070300;28;19917;-70
2023/09/03 06:15:39;;;;;;;;;;;;;;;;;;2061547;28;20355;-70
2023/09/03 06:17:00;;;;;;;;;;;;;;;;;;2068395;28;19917;-69
2023/09/03 06:18:21;;;;;;;;;;;;;;;;;;2068677;28;19932;-70
2023/09/03 06:19:42;;;;;;;;;;;;;;;;;;2065128;28;20431;-70
2023/09/03 06:21:03;;;;;;;;;;;;;;;;;;2061577;28;20324;-70
2023/09/03 06:22:24;;;;;;;;;;;;;;;;;;2066672;28;19917;-70
2023/09/03 06:23:44;;;;;;;;;;;;;;;;;;2072813;28;20330;-70
2023/09/03 06:25:05;;;;;;;;;;;;;;;;;;2061766;28;19910;-69
2023/09/03 06:26:26;;;;;;;;;;;;;;;;;;2074715;28;20253;-70
2023/09/03 06:27:47;;;;;;;;;;;;;;;;;;2074323;28;19924;-70
2023/09/03 06:29:07;;;;;;;;;;;;;;;;;;2063695;28;20158;-70
2023/09/03 06:30:28;;;;;;;;;;;;;;;;;;2069527;28;19921;-70
2023/09/03 06:31:49;;;;;;;;;;;;;;;;;;2069662;28;20046;-70
2023/09/03 06:33:09;;;;;;;;;;;;;;;;;;2069127;28;19917;-70
2023/09/03 06:34:30;;;;;;;;;;;;;;;;;;2068617;28;21316;-70
2023/09/03 06:35:51;;;;;;;;;;;;;;;;;;2071602;28;19933;-70
2023/09/03 06:37:12;;;;;;;;;;;;;;;;;;2071384;28;19922;-70
2023/09/03 06:38:33;;;;;;;;;;;;;;;;;;2070189;28;19944;-70
2023/09/03 06:39:54;;;;;;;;;;;;;;;;;;2071121;28;19922;-70
2023/09/03 06:41:15;;;;;;;;;;;;;;;;;;2063589;28;19920;-70
2023/09/03 06:42:36;;;;;;;;;;;;;;;;;;2063163;28;19918;-70
2023/09/03 06:43:56;;;;;;;;;;;;;;;;;;2067107;28;19914;-70
2023/09/03 06:45:17;;;;;;;;;;;;;;;;;;2072616;28;19917;-70
2023/09/03 06:46:38;;;;;;;;;;;;;;;;;;2070357;28;20320;-70
2023/09/03 06:47:59;;;;;;;;;;;;;;;;;;2068799;28;19918;-70
2023/09/03 06:49:20;;;;;;;;;;;;;;;;;;2068168;28;20025;-70
2023/09/03 06:50:41;;;;;;;;;;;;;;;;;;2064968;28;19917;-69
2023/09/03 06:52:02;;;;;;;;;;;;;;;;;;2060034;28;19929;-71
2023/09/03 06:53:23;;;;;;;;;;;;;;;;;;2066891;28;19913;-70
2023/09/03 06:54:43;;;;;;;;;;;;;;;;;;2065294;28;19940;-69
2023/09/03 06:56:05;;;;;;;;;;;;;;;;;;2070815;28;19913;-69
2023/09/03 06:57:25;;;;;;;;;;;;;;;;;;2062895;28;19940;-70
2023/09/03 06:58:46;;;;;;;;;;;;;;;;;;2064610;28;19930;-71
2023/09/03 07:00:07;;;;;;;;;;;;;;;;;;2070953;28;19924;-70
2023/09/03 07:01:27;;;;;;;;;;;;;;;;;;2068807;28;20396;-70
2023/09/03 07:02:48;;;;;;;;;;;;;;;;;;2071349;28;19956;-70
2023/09/03 07:04:09;;;;;;;;;;;;;;;;;;2071513;28;19914;-70
2023/09/03 07:05:30;;;;;;;;;;;;;;;;;;2070538;28;19921;-70
2023/09/03 07:06:50;;;;;;;;;;;;;;;;;;2071061;28;19917;-70
2023/09/03 07:08:11;;;;;;;;;;;;;;;;;;2070767;28;19918;-71
2023/09/03 07:09:33;;;;;;;;;;;;;;;;;;2064208;28;19917;-69
2023/09/03 07:10:53;;;;;;;;;;;;;;;;;;2060147;28;20267;-70
2023/09/03 07:12:14;;;;;;;;;;;;;;;;;;2067759;28;19918;-71
2023/09/03 07:13:35;;;;;;;;;;;;;;;;;;2078296;28;19920;-70
2023/09/03 07:14:55;;;;;;;;;;;;;;;;;;2060976;28;19918;-70
2023/09/03 07:16:16;;;;;;;;;;;;;;;;;;2067585;28;19993;-71
2023/09/03 07:17:37;;;;;;;;;;;;;;;;;;2067558;28;19917;-70
2023/09/03 07:18:57;;;;;;;;;;;;;;;;;;2058622;28;19925;-70
2023/09/03 07:20:18;;;;;;;;;;;;;;;;;;2063422;28;19924;-72
2023/09/03 07:21:39;;;;;;;;;;;;;;;;;;2061213;28;19921;-70
2023/09/03 07:22:59;;;;;;;;;;;;;;;;;;2063145;28;19914;-69
2023/09/03 07:24:20;;;;;;;;;;;;;;;;;;2062085;28;20301;-70
2023/09/03 07:25:41;;;;;;;;;;;;;;;;;;2062920;28;20004;-71
2023/09/03 07:27:02;;;;;;;;;;;;;;;;;;2061772;28;19968;-71
2023/09/03 07:28:22;;;;;;;;;;;;;;;;;;2060208;28;19921;-71
2023/09/03 07:29:43;;;;;;;;;;;;;;;;;;2061334;28;19922;-69
2023/09/03 07:31:04;;;;;;;;;;;;;;;;;;2066451;28;20239;-69
2023/09/03 07:32:24;;;;;;;;;;;;;;;;;;2073182;28;20321;-69
2023/09/03 07:33:45;;;;;;;;;;;;;;;;;;2078750;28;19993;-70
2023/09/03 07:35:06;;;;;;;;;;;;;;;;;;2073536;28;19921;-70
2023/09/03 07:36:26;;;;;;;;;;;;;;;;;;2072899;28;19922;-70
2023/09/03 07:37:47;;;;;;;;;;;;;;;;;;2072218;28;19921;-69
2023/09/03 07:39:09;;;;;;;;;;;;;;;;;;2074159;28;20285;-69
2023/09/03 07:40:30;;;;;;;;;;;;;;;;;;2073551;28;19952;-70
2023/09/03 07:41:50;;;;;;;;;;;;;;;;;;2077985;28;19932;-70
2023/09/03 07:43:11;;;;;;;;;;;;;;;;;;2074895;28;20365;-69
2023/09/03 07:44:32;;;;;;;;;;;;;;;;;;2063371;28;19929;-69
2023/09/03 07:45:52;;;;;;;;;;;;;;;;;;2065076;28;19922;-70
2023/09/03 07:47:13;;;;;;;;;;;;;;;;;;2071230;28;20337;-69
2023/09/03 07:48:34;;;;;;;;;;;;;;;;;;2064217;28;19914;-70
2023/09/03 07:49:55;;;;;;;;;;;;;;;;;;2068790;28;19910;-70
2023/09/03 07:51:17;;;;;;;;;;;;;;;;;;2064292;28;19918;-70
2023/09/03 07:52:37;;;;;;;;;;;;;;;;;;2075546;28;19913;-70
2023/09/03 07:53:58;;;;;;;;;;;;;;;;;;2081717;28;19910;-69
2023/09/03 07:55:19;;;;;;;;;;;;;;;;;;2073215;28;20365;-70
2023/09/03 07:56:39;;;;;;;;;;;;;;;;;;2076094;28;19920;-69
2023/09/03 07:58:00;;;;;;;;;;;;;;;;;;2080873;28;19920;-71
2023/09/03 07:59:21;;;;;;;;;;;;;;;;;;2066319;28;19925;-70
2023/09/03 08:00:42;;;;;;;;;;;;;;;;;;2069708;28;20451;-69
2023/09/03 08:02:02;;;;;;;;;;;;;;;;;;2075420;28;20281;-70
2023/09/03 08:03:23;;;;;;;;;;;;;;;;;;2073402;28;19929;-70
2023/09/03 08:04:44;;;;;;;;;;;;;;;;;;2071909;28;20289;-70
2023/09/03 08:06:04;;;;;;;;;;;;;;;;;;2065002;28;19910;-71
2023/09/03 08:07:25;;;;;;;;;;;;;;;;;;2065527;28;19917;-71
2023/09/03 08:08:53;;;;;;;;;;;;;;;;;;2065244;28;19929;-70
2023/09/03 08:10:14;;;;;;;;;;;;;;;;;;2069181;28;19910;-69
2023/09/03 08:11:36;;;;;;;;;;;;;;;;;;2077455;28;19917;-70
2023/09/03 08:12:57;;;;;;;;;;;;;;;;;;2072842;28;19913;-70
2023/09/03 08:14:18;;;;;;;;;;;;;;;;;;2072945;28;19939;-70
2023/09/03 08:15:38;;;;;;;;;;;;;;;;;;2072372;28;19925;-70
2023/09/03 08:16:59;;;;;;;;;;;;;;;;;;2079477;28;20309;-70
2023/09/03 08:18:20;;;;;;;;;;;;;;;;;;2079970;28;19996;-69
2023/09/03 08:19:40;;;;;;;;;;;;;;;;;;2081491;28;19920;-70
2023/09/03 08:21:01;;;;;;;;;;;;;;;;;;2081041;28;20330;-71
2023/09/03 08:22:22;;;;;;;;;;;;;;;;;;2065513;28;20385;-70
2023/09/03 08:23:42;;;;;;;;;;;;;;;;;;2066215;28;19910;-70
2023/09/03 08:25:03;;;;;;;;;;;;;;;;;;2068052;28;19910;-70
2023/09/03 08:26:24;;;;;;;;;;;;;;;;;;2072507;28;20272;-69
2023/09/03 08:27:44;;;;;;;;;;;;;;;;;;2072098;28;19929;-71
2023/09/03 08:29:05;;;;;;;;;;;;;;;;;;2058050;28;19973;-72
2023/09/03 08:30:26;;;;;;;;;;;;;;;;;;2063776;28;19909;-75
2023/09/03 08:31:47;;;;;;;;;;;;;;;;;;2065509;28;19917;-74
2023/09/03 08:33:07;;;;;;;;;;;;;;;;;;2063415;28;19913;-73
2023/09/03 08:34:28;;;;;;;;;;;;;;;;;;2062182;28;19944;-74
2023/09/03 08:35:49;;;;;;;;;;;;;;;;;;2069770;28;20033;-74
2023/09/03 08:37:09;;;;;;;;;;;;;;;;;;2067851;28;19917;-74
2023/09/03 08:38:30;;;;;;;;;;;;;;;;;;2067684;28;19921;-75
2023/09/03 08:39:51;;;;;;;;;;;;;;;;;;2065904;28;20616;-75
2023/09/03 08:41:11;;;;;;;;;;;;;;;;;;2072366;28;19918;-75
2023/09/03 08:42:32;;;;;;;;;;;;;;;;;;2080655;28;20418;-75
2023/09/03 08:43:53;;;;;;;;;;;;;;;;;;2071367;28;19917;-75
2023/09/03 08:45:13;;;;;;;;;;;;;;;;;;2061323;28;19914;-75
2023/09/03 08:46:34;;;;;;;;;;;;;;;;;;2057645;28;20337;-74
2023/09/03 08:47:55;;;;;;;;;;;;;;;;;;2065094;28;19918;-73
2023/09/03 08:49:16;;;;;;;;;;;;;;;;;;2069454;28;19980;-74
2023/09/03 08:50:37;;;;;;;;;;;;;;;;;;2071722;28;19917;-74
2023/09/03 08:51:57;;;;;;;;;;;;;;;;;;2070194;28;19936;-74
2023/09/03 08:53:18;;;;;;;;;;;;;;;;;;2073048;28;19993;-74
2023/09/03 08:54:39;;;;;;;;;;;;;;;;;;2070096;28;19917;-74
2023/09/03 08:56:00;;;;;;;;;;;;;;;;;;2066357;28;19914;-74
2023/09/03 08:57:20;;;;;;;;;;;;;;;;;;2072524;28;19964;-74
2023/09/03 08:58:41;;;;;;;;;;;;;;;;;;2072160;28;19918;-74
2023/09/03 09:00:05;;;;;;;;;;;;;;;;;;2072400;28;20320;-74
2023/09/03 09:01:26;;;;;;;;;;;;;;;;;;2060749;28;19918;-73
2023/09/03 09:02:46;;;;;;;;;;;;;;;;;;2070711;28;19914;-74
2023/09/03 09:04:07;;;;;;;;;;;;;;;;;;2062777;28;20348;-74
2023/09/03 09:05:28;;;;;;;;;;;;;;;;;;2066232;28;19918;-74
2023/09/03 09:06:48;;;;;;;;;;;;;;;;;;2076727;28;19916;-74
2023/09/03 09:08:09;;;;;;;;;;;;;;;;;;2072695;28;20381;-74
2023/09/03 09:09:30;;;;;;;;;;;;;;;;;;2070900;28;20199;-74
2023/09/03 09:10:51;;;;;;;;;;;;;;;;;;2072611;28;19925;-74